createdAt,value
2018-04-20T00:02:23.165Z,68.60
2018-04-20T00:04:51.500Z,67.90
2018-04-20T00:07:19.809Z,68.00
2018-04-20T00:09:48.142Z,68.20
2018-04-20T00:12:16.449Z,68.30
2018-04-20T00:14:44.776Z,68.50
2018-04-20T00:17:13.089Z,68.70
2018-04-20T00:19:41.431Z,68.90
2018-04-20T00:22:09.740Z,69.20
2018-04-20T00:24:38.073Z,69.50
2018-04-20T00:27:06.380Z,69.70
2018-04-20T00:29:34.709Z,69.90
2018-04-20T00:32:03.024Z,69.90
2018-04-20T00:34:31.345Z,70.00
2018-04-20T00:36:58.883Z,70.90
2018-04-20T00:39:27.222Z,70.00
2018-04-20T00:41:57.612Z,70.20
2018-04-20T00:44:27.538Z,70.40
2018-04-20T00:46:55.857Z,70.60
2018-04-20T00:49:24.624Z,70.80
2018-04-20T00:51:52.932Z,71.00
2018-04-20T00:54:27.377Z,71.10
2018-04-20T00:56:55.697Z,71.20
2018-04-20T00:59:24.876Z,71.30
2018-04-20T01:01:53.206Z,71.40
2018-04-20T01:04:22.971Z,71.70
2018-04-20T01:06:51.303Z,71.90
2018-04-20T01:09:19.617Z,72.30
2018-04-20T01:11:47.949Z,72.70
2018-04-20T01:14:16.256Z,73.20
2018-04-20T01:16:44.589Z,73.40
2018-04-20T01:19:12.893Z,73.70
2018-04-20T01:21:41.241Z,73.60
2018-04-20T01:24:09.561Z,73.70
2018-04-20T01:26:37.888Z,73.90
2018-04-20T01:29:06.197Z,73.80
2018-04-20T01:31:34.531Z,73.80
2018-04-20T01:34:02.840Z,74.00
2018-04-20T01:36:31.173Z,74.50
2018-04-20T01:38:59.478Z,74.80
2018-04-20T01:41:29.125Z,75.20
2018-04-20T01:43:58.709Z,75.50
2018-04-20T01:46:27.059Z,75.50
2018-04-20T01:48:56.878Z,75.50
2018-04-20T01:51:26.614Z,75.40
2018-04-20T01:53:56.866Z,75.50
2018-04-20T01:56:27.526Z,75.50
2018-04-20T01:58:57.477Z,75.50
2018-04-20T02:01:27.546Z,75.50
2018-04-20T02:03:56.675Z,75.60
2018-04-20T02:06:26.221Z,75.70
2018-04-20T02:08:54.536Z,75.70
2018-04-20T02:11:22.865Z,76.10
2018-04-20T02:13:51.168Z,76.40
2018-04-20T02:16:19.492Z,76.60
2018-04-20T02:18:47.805Z,76.80
2018-04-20T02:21:16.141Z,76.70
2018-04-20T02:23:44.453Z,76.60
2018-04-20T02:26:12.777Z,76.60
2018-04-20T02:28:41.077Z,76.60
2018-04-20T02:31:09.406Z,76.70
2018-04-20T02:33:37.717Z,76.80
2018-04-20T02:36:06.058Z,76.60
2018-04-20T02:38:34.360Z,76.70
2018-04-20T02:41:02.695Z,76.80
2018-04-20T02:43:31.019Z,76.90
2018-04-20T02:45:59.361Z,76.90
2018-04-20T02:48:29.034Z,77.00
2018-04-20T02:50:58.373Z,77.20
2018-04-20T02:53:28.403Z,77.30
2018-04-20T02:55:57.936Z,77.40
2018-04-20T02:58:26.246Z,77.50
2018-04-20T03:00:54.576Z,78.80
2018-04-20T03:03:22.880Z,78.90
2018-04-20T03:05:51.200Z,79.10
2018-04-20T03:08:19.503Z,79.00
2018-04-20T03:10:47.833Z,80.20
2018-04-20T03:13:16.133Z,79.50
2018-04-20T03:15:44.456Z,79.70
2018-04-20T03:18:12.761Z,79.70
2018-04-20T03:20:41.084Z,79.80
2018-04-20T03:23:09.381Z,79.90
2018-04-20T03:25:37.705Z,80.00
2018-04-20T03:28:05.250Z,80.00
2018-04-20T03:30:33.573Z,80.20
2018-04-20T03:33:01.871Z,80.20
2018-04-20T03:35:30.196Z,80.20
2018-04-20T03:37:58.497Z,80.30
2018-04-20T03:40:27.677Z,80.20
2018-04-20T03:42:56.787Z,80.10
2018-04-20T03:45:25.651Z,80.20
2018-04-20T03:47:54.000Z,80.30
2018-04-20T03:50:22.302Z,80.50
2018-04-20T03:52:50.624Z,80.80
2018-04-20T03:55:18.933Z,81.00
2018-04-20T03:57:47.260Z,81.20
2018-04-20T04:00:15.569Z,81.50
2018-04-20T04:02:43.893Z,81.70
2018-04-20T04:05:12.203Z,81.80
2018-04-20T04:07:40.528Z,81.90
2018-04-20T04:10:08.842Z,81.80
2018-04-20T04:12:37.176Z,82.00
2018-04-20T04:15:05.485Z,82.20
2018-04-20T04:17:45.474Z,82.30
2018-04-20T04:20:27.949Z,83.10
2018-04-20T04:23:08.152Z,82.70
2018-04-20T04:25:48.492Z,82.80
2018-04-20T04:28:29.784Z,82.80
2018-04-20T04:30:58.740Z,82.60
2018-04-20T04:33:28.056Z,83.40
2018-04-20T04:35:57.480Z,82.50
2018-04-20T04:38:25.804Z,82.30
2018-04-20T04:40:55.057Z,82.30
2018-04-20T04:43:24.058Z,83.00
2018-04-20T04:45:52.361Z,82.10
2018-04-20T04:48:20.684Z,82.20
2018-04-20T04:50:48.995Z,82.10
2018-04-20T04:53:17.329Z,82.20
2018-04-20T04:55:45.628Z,82.20
2018-04-20T04:58:13.989Z,82.10
2018-04-20T05:00:42.291Z,82.20
2018-04-20T05:03:10.616Z,82.30
2018-04-20T05:05:38.917Z,82.30
2018-04-20T05:08:07.232Z,82.00
2018-04-20T05:10:35.533Z,81.60
2018-04-20T05:13:03.861Z,80.00
2018-04-20T05:15:32.171Z,79.70
2018-04-20T05:18:00.493Z,78.80
2018-04-20T05:20:28.792Z,77.50
2018-04-20T05:22:57.116Z,76.30
2018-04-20T05:25:27.855Z,75.50
2018-04-20T05:27:56.188Z,75.00
2018-04-20T05:30:24.506Z,74.60
2018-04-20T05:32:52.870Z,74.30
2018-04-20T05:35:21.160Z,73.80
2018-04-20T05:37:49.497Z,73.60
2018-04-20T05:40:17.806Z,73.30
2018-04-20T05:42:46.123Z,73.00
2018-04-20T05:45:14.432Z,72.70
2018-04-20T05:47:42.768Z,72.40
2018-04-20T05:50:11.081Z,72.20
2018-04-20T05:52:39.408Z,71.80
2018-04-20T05:55:07.713Z,71.30
2018-04-20T05:57:36.049Z,70.90
2018-04-20T06:00:04.362Z,70.60
2018-04-20T06:02:32.693Z,70.10
2018-04-20T06:05:00.996Z,69.60
2018-04-20T06:07:29.328Z,69.40
2018-04-20T06:09:58.357Z,69.00
2018-04-20T06:12:27.909Z,68.60
2018-04-20T06:14:56.228Z,68.20
2018-04-20T06:17:24.577Z,67.80
2018-04-20T06:19:52.893Z,67.00
2018-04-20T06:22:21.317Z,66.30
2018-04-20T06:24:49.628Z,65.50
2018-04-20T06:27:17.965Z,64.80
2018-04-20T06:29:46.271Z,64.20
2018-04-20T06:32:14.600Z,63.70
2018-04-20T06:34:42.896Z,64.00
2018-04-20T06:37:11.223Z,62.70
2018-04-20T06:39:39.537Z,62.20
2018-04-20T06:42:07.865Z,61.60
2018-04-20T06:44:36.180Z,61.00
2018-04-20T06:47:04.509Z,60.30
2018-04-20T06:49:32.817Z,59.90
2018-04-20T06:52:01.145Z,59.50
2018-04-20T06:54:29.456Z,59.10
2018-04-20T06:56:59.011Z,58.80
2018-04-20T06:59:28.360Z,58.20
2018-04-20T07:01:57.975Z,58.00
2018-04-20T07:04:26.329Z,57.60
2018-04-20T07:06:54.629Z,57.00
2018-04-20T07:09:22.952Z,56.40
2018-04-20T07:11:51.260Z,56.00
2018-04-20T07:14:19.655Z,56.00
2018-04-20T07:16:47.959Z,55.40
2018-04-20T07:19:16.283Z,54.90
2018-04-20T07:21:44.580Z,54.80
2018-04-20T07:24:12.913Z,54.50
2018-04-20T07:26:41.215Z,54.30
2018-04-20T07:29:09.532Z,53.70
2018-04-20T07:31:37.838Z,53.50
2018-04-20T07:34:06.171Z,53.00
2018-04-20T07:36:34.485Z,52.30
2018-04-20T07:39:02.808Z,51.90
2018-04-20T07:41:31.173Z,51.40
2018-04-20T07:43:59.476Z,50.90
2018-04-20T07:46:28.765Z,50.70
2018-04-20T07:48:57.116Z,50.00
2018-04-20T07:51:26.669Z,49.70
2018-04-20T07:53:56.977Z,49.50
2018-04-20T07:56:27.439Z,49.40
2018-04-20T07:58:55.764Z,49.20
2018-04-20T08:01:24.785Z,48.70
2018-04-20T08:03:53.108Z,48.50
2018-04-20T08:06:21.414Z,48.30
2018-04-20T08:08:49.744Z,48.00
2018-04-20T08:11:18.048Z,47.90
2018-04-20T08:13:46.383Z,48.30
2018-04-20T08:16:14.695Z,48.30
2018-04-20T08:18:43.012Z,48.50
2018-04-20T08:21:11.311Z,48.70
2018-04-20T08:23:39.641Z,49.30
2018-04-20T08:26:07.943Z,49.30
2018-04-20T08:28:36.267Z,49.00
2018-04-20T08:31:04.570Z,48.90
2018-04-20T08:33:32.895Z,48.60
2018-04-20T08:36:01.230Z,47.80
2018-04-20T08:38:29.552Z,47.20
2018-04-20T08:40:59.042Z,46.80
2018-04-20T08:43:28.392Z,45.80
2018-04-20T08:45:58.086Z,44.30
2018-04-20T08:48:27.761Z,43.90
2018-04-20T08:50:56.597Z,43.50
2018-04-20T08:53:26.220Z,42.60
2018-04-20T08:55:54.603Z,41.60
2018-04-20T08:58:22.921Z,39.90
2018-04-20T09:00:51.233Z,39.90
2018-04-20T09:03:19.558Z,39.30
2018-04-20T09:05:47.866Z,38.90
2018-04-20T09:08:16.196Z,38.40
2018-04-20T09:10:44.536Z,37.60
2018-04-20T09:13:12.846Z,38.20
2018-04-20T09:15:41.152Z,38.60
2018-04-20T09:18:09.482Z,37.50
2018-04-20T09:20:37.795Z,36.00
2018-04-20T09:23:06.125Z,36.50
2018-04-20T09:25:34.424Z,36.00
2018-04-20T09:28:03.740Z,35.20
2018-04-20T09:30:32.041Z,34.70
2018-04-20T09:33:00.340Z,34.60
2018-04-20T09:35:28.664Z,34.40
2018-04-20T09:37:58.001Z,34.20
2018-04-20T09:40:27.789Z,34.20
2018-04-20T09:42:56.800Z,33.40
2018-04-20T09:45:25.673Z,32.60
2018-04-20T09:47:54.041Z,31.90
2018-04-20T09:50:22.367Z,31.60
2018-04-20T09:52:50.680Z,31.50
2018-04-20T09:55:19.009Z,30.60
2018-04-20T09:57:47.317Z,31.00
2018-04-20T10:00:18.573Z,30.90
2018-04-20T10:02:46.898Z,30.70
2018-04-20T10:05:15.224Z,30.70
2018-04-20T10:07:43.534Z,30.00
2018-04-20T10:10:11.857Z,29.90
2018-04-20T10:12:40.164Z,29.50
2018-04-20T10:15:08.489Z,29.30
2018-04-20T10:17:36.796Z,29.20
2018-04-20T10:20:05.120Z,29.50
2018-04-20T10:22:33.429Z,29.30
2018-04-20T10:25:01.780Z,29.10
2018-04-20T10:27:30.080Z,29.30
2018-04-20T10:29:58.403Z,29.60
2018-04-20T10:32:27.372Z,28.70
2018-04-20T10:34:55.696Z,28.90
2018-04-20T10:37:24.049Z,28.70
2018-04-20T10:39:52.367Z,28.80
2018-04-20T10:42:20.672Z,27.60
2018-04-20T10:44:48.997Z,26.90
2018-04-20T10:47:17.320Z,28.00
2018-04-20T10:49:45.649Z,28.00
2018-04-20T10:52:13.949Z,28.00
2018-04-20T10:54:42.286Z,28.30
2018-04-20T10:57:10.588Z,28.10
2018-04-20T10:59:38.911Z,27.80
2018-04-20T11:02:07.217Z,28.20
2018-04-20T11:04:35.568Z,27.80
2018-04-20T11:07:03.873Z,27.50
2018-04-20T11:09:32.195Z,27.50
2018-04-20T11:12:00.500Z,27.70
2018-04-20T11:14:28.824Z,27.20
2018-04-20T11:16:57.137Z,27.00
2018-04-20T11:19:27.720Z,26.60
2018-04-20T11:21:56.666Z,26.10
2018-04-20T11:24:26.186Z,26.90
2018-04-20T11:26:54.497Z,27.60
2018-04-20T11:29:22.816Z,27.90
2018-04-20T11:31:51.125Z,26.90
2018-04-20T11:34:19.460Z,26.50
2018-04-20T11:36:47.762Z,26.70
2018-04-20T11:39:21.321Z,27.00
2018-04-20T11:41:49.785Z,26.80
2018-04-20T11:44:18.289Z,26.70
2018-04-20T11:46:46.701Z,26.30
2018-04-20T11:49:15.221Z,26.00
2018-04-20T11:51:43.741Z,26.30
2018-04-20T11:54:12.147Z,26.30
2018-04-20T11:56:40.650Z,26.60
2018-04-20T11:59:09.186Z,26.30
2018-04-20T12:01:37.837Z,26.70
2018-04-20T12:04:06.301Z,27.20
2018-04-20T12:06:34.747Z,26.60
2018-04-20T12:09:03.254Z,26.80
2018-04-20T12:11:31.808Z,26.80
2018-04-20T12:14:00.283Z,26.10
2018-04-20T12:16:28.777Z,26.30
2018-04-20T12:18:57.249Z,26.40
2018-04-20T12:21:26.325Z,26.40
2018-04-20T12:23:54.783Z,26.60
2018-04-20T12:26:23.288Z,26.40
2018-04-20T12:28:52.657Z,26.70
2018-04-20T12:31:21.011Z,26.70
2018-04-20T12:33:49.313Z,27.20
2018-04-20T12:36:17.648Z,26.40
2018-04-20T12:38:45.949Z,26.50
2018-04-20T12:41:14.280Z,27.10
2018-04-20T12:43:42.602Z,27.40
2018-04-20T12:46:10.920Z,27.10
2018-04-20T12:48:39.212Z,27.40
2018-04-20T12:51:07.540Z,27.30
2018-04-20T12:53:35.840Z,27.20
2018-04-20T12:56:04.160Z,26.90
2018-04-20T12:58:32.460Z,27.20
2018-04-20T13:01:00.789Z,27.00
2018-04-20T13:03:29.096Z,27.20
2018-04-20T13:05:58.648Z,27.40
2018-04-20T13:08:27.909Z,27.80
2018-04-20T13:10:56.232Z,28.20
2018-04-20T13:13:24.533Z,28.20
2018-04-20T13:15:52.864Z,28.20
2018-04-20T13:18:21.242Z,27.90
2018-04-20T13:20:49.535Z,27.90
2018-04-20T13:23:17.841Z,27.40
2018-04-20T13:25:46.164Z,27.40
2018-04-20T13:28:14.463Z,27.80
2018-04-20T13:30:42.791Z,28.00
2018-04-20T13:33:11.100Z,28.20
2018-04-20T13:35:39.429Z,28.20
2018-04-20T13:38:07.743Z,28.40
2018-04-20T13:40:36.067Z,28.50
2018-04-20T13:43:04.423Z,28.80
2018-04-20T13:45:32.753Z,27.70
2018-04-20T13:48:01.787Z,27.30
2018-04-20T13:50:30.309Z,26.80
2018-04-20T13:52:58.620Z,27.50
2018-04-20T13:55:27.803Z,27.40
2018-04-20T13:57:56.282Z,27.10
2018-04-20T14:00:24.613Z,27.50
2018-04-20T14:02:52.913Z,27.80
2018-04-20T14:05:21.249Z,27.90
2018-04-20T14:07:49.558Z,28.30
2018-04-20T14:10:17.881Z,28.50
2018-04-20T14:12:46.251Z,28.90
2018-04-20T14:15:14.552Z,29.30
2018-04-20T14:17:42.856Z,29.70
2018-04-20T14:20:11.188Z,29.10
2018-04-20T14:22:39.492Z,29.30
2018-04-20T14:25:08.177Z,28.90
2018-04-20T14:27:36.488Z,28.50
2018-04-20T14:30:04.812Z,28.60
2018-04-20T14:32:33.112Z,28.30
2018-04-20T14:35:01.408Z,28.30
2018-04-20T14:37:29.737Z,28.30
2018-04-20T14:39:59.318Z,28.60
2018-04-20T14:42:28.548Z,28.80
2018-04-20T14:44:57.914Z,29.00
2018-04-20T14:47:26.648Z,29.00
2018-04-20T14:49:56.934Z,29.10
2018-04-20T14:52:29.216Z,29.20
2018-04-20T14:54:58.520Z,28.90
2018-04-20T14:57:28.449Z,28.40
2018-04-20T14:59:58.093Z,29.10
2018-04-20T15:02:27.401Z,29.20
2018-04-20T15:04:56.675Z,29.00
2018-04-20T15:07:25.749Z,29.00
2018-04-20T15:09:54.068Z,29.20
2018-04-20T15:12:22.393Z,29.20
2018-04-20T15:14:50.702Z,29.10
2018-04-20T15:17:19.036Z,29.20
2018-04-20T15:19:46.572Z,29.20
2018-04-20T15:22:14.905Z,29.50
2018-04-20T15:24:43.248Z,30.00
2018-04-20T15:27:11.554Z,29.80
2018-04-20T15:29:39.864Z,29.60
2018-04-20T15:32:08.183Z,29.60
2018-04-20T15:34:36.489Z,29.90
2018-04-20T15:37:04.817Z,29.90
2018-04-20T15:39:33.121Z,29.60
2018-04-20T15:42:01.448Z,29.40
2018-04-20T15:44:29.752Z,29.70
2018-04-20T15:46:58.966Z,29.90
2018-04-20T15:49:27.689Z,30.40
2018-04-20T15:51:56.626Z,30.90
2018-04-20T15:54:26.771Z,31.30
2018-04-20T15:56:57.297Z,31.30
2018-04-20T15:59:26.780Z,31.50
2018-04-20T16:01:57.790Z,31.50
2018-04-20T16:04:26.918Z,31.50
2018-04-20T16:06:57.405Z,31.60
2018-04-20T16:09:25.710Z,31.80
2018-04-20T16:11:54.082Z,31.80
2018-04-20T16:14:22.396Z,31.70
2018-04-20T16:16:50.749Z,31.70
2018-04-20T16:19:19.069Z,31.90
2018-04-20T16:21:47.400Z,31.80
2018-04-20T16:24:15.708Z,31.80
2018-04-20T16:26:44.077Z,31.70
2018-04-20T16:29:12.384Z,32.20
2018-04-20T16:31:40.714Z,32.30
2018-04-20T16:34:09.012Z,32.40
2018-04-20T16:36:36.560Z,32.30
2018-04-20T16:39:05.753Z,32.60
2018-04-20T16:41:34.065Z,32.60
2018-04-20T16:44:02.380Z,32.70
2018-04-20T16:46:30.707Z,32.90
2018-04-20T16:48:59.455Z,33.50
2018-04-20T16:51:28.928Z,34.10
2018-04-20T16:53:58.513Z,34.60
2018-04-20T16:56:27.888Z,34.90
2018-04-20T16:58:56.272Z,35.00
2018-04-20T17:01:24.702Z,35.30
2018-04-20T17:03:53.066Z,36.00
2018-04-20T17:06:21.397Z,36.70
2018-04-20T17:08:49.708Z,36.70
2018-04-20T17:11:18.036Z,36.30
2018-04-20T17:13:46.350Z,36.60
2018-04-20T17:16:13.923Z,36.00
2018-04-20T17:18:42.227Z,34.90
2018-04-20T17:21:10.569Z,34.80
2018-04-20T17:23:38.877Z,34.70
2018-04-20T17:26:07.201Z,34.60
2018-04-20T17:28:35.509Z,34.70
2018-04-20T17:31:03.814Z,34.40
2018-04-20T17:33:32.153Z,33.60
2018-04-20T17:36:00.457Z,33.30
2018-04-20T17:38:28.824Z,33.10
2018-04-20T17:40:57.132Z,33.10
2018-04-20T17:43:28.021Z,33.40
2018-04-20T17:45:57.396Z,33.40
2018-04-20T17:48:25.737Z,33.60
2018-04-20T17:50:54.108Z,34.50
2018-04-20T17:53:22.455Z,35.80
2018-04-20T17:55:50.773Z,37.40
2018-04-20T17:58:19.116Z,38.00
2018-04-20T18:00:47.486Z,39.40
2018-04-20T18:03:15.957Z,40.50
2018-04-20T18:05:43.492Z,40.50
2018-04-20T18:08:11.824Z,42.20
2018-04-20T18:10:40.128Z,42.90
2018-04-20T18:13:08.456Z,43.50
2018-04-20T18:15:36.757Z,44.00
2018-04-20T18:18:05.107Z,44.90
2018-04-20T18:20:33.425Z,45.70
2018-04-20T18:23:01.820Z,46.10
2018-04-20T18:25:30.140Z,46.70
2018-04-20T18:27:58.480Z,47.60
2018-04-20T18:30:27.228Z,48.10
2018-04-20T18:32:57.860Z,48.60
2018-04-20T18:35:26.169Z,49.20
2018-04-20T18:37:55.032Z,49.60
2018-04-20T18:40:23.340Z,49.80
2018-04-20T18:42:52.540Z,50.00
2018-04-20T18:45:20.854Z,50.20
2018-04-20T18:47:49.193Z,50.20
2018-04-20T18:50:17.520Z,50.20
2018-04-20T18:52:46.383Z,50.70
2018-04-20T18:55:14.688Z,50.90
2018-04-20T18:57:43.016Z,51.10
2018-04-20T19:00:11.322Z,51.40
2018-04-20T19:02:39.664Z,51.90
2018-04-20T19:05:07.977Z,52.20
2018-04-20T19:07:36.385Z,52.30
2018-04-20T19:10:04.689Z,52.50
2018-04-20T19:12:33.025Z,52.90
2018-04-20T19:15:01.527Z,53.30
2018-04-20T19:17:29.869Z,53.70
2018-04-20T19:19:59.619Z,53.80
2018-04-20T19:22:29.093Z,54.30
2018-04-20T19:24:58.908Z,54.60
2018-04-20T19:27:27.285Z,54.80
2018-04-20T19:29:58.551Z,55.10
2018-04-20T19:32:27.982Z,55.50
2018-04-20T19:34:56.288Z,55.90
2018-04-20T19:37:24.624Z,56.30
2018-04-20T19:39:52.944Z,56.80
2018-04-20T19:42:21.281Z,57.10
2018-04-20T19:44:49.593Z,57.30
2018-04-20T19:47:17.931Z,57.60
2018-04-20T19:49:46.241Z,58.00
2018-04-20T19:52:14.564Z,58.30
2018-04-20T19:54:42.868Z,58.60
2018-04-20T19:57:11.173Z,58.70
2018-04-20T19:59:39.597Z,58.90
2018-04-20T20:02:07.909Z,59.20
2018-04-20T20:04:36.251Z,59.40
2018-04-20T20:07:04.582Z,59.60
2018-04-20T20:09:32.932Z,59.80
2018-04-20T20:12:01.297Z,60.10
2018-04-20T20:14:29.629Z,60.50
2018-04-20T20:16:59.157Z,61.10
2018-04-20T20:19:28.776Z,61.50
2018-04-20T20:21:57.529Z,61.60
2018-04-20T20:24:25.868Z,61.60
2018-04-20T20:26:55.741Z,62.10
2018-04-20T20:29:24.105Z,62.30
2018-04-20T20:31:52.447Z,62.30
2018-04-20T20:34:20.911Z,62.40
2018-04-20T20:36:48.507Z,62.30
2018-04-20T20:39:16.869Z,62.70
2018-04-20T20:41:45.173Z,63.20
2018-04-20T20:44:13.505Z,63.60
2018-04-20T20:46:41.825Z,64.00
2018-04-20T20:49:10.144Z,64.40
2018-04-20T20:51:38.453Z,64.60
2018-04-20T20:54:06.781Z,64.80
2018-04-20T20:56:35.097Z,64.90
2018-04-20T20:59:03.429Z,65.10
2018-04-20T21:01:31.793Z,65.40
2018-04-20T21:04:00.132Z,65.10
2018-04-20T21:06:28.444Z,65.20
2018-04-20T21:08:57.929Z,65.30
2018-04-20T21:11:26.358Z,65.70
2018-04-20T21:13:54.697Z,66.00
2018-04-20T21:16:23.008Z,67.00
2018-04-20T21:18:51.321Z,66.70
2018-04-20T21:21:19.650Z,66.30
2018-04-20T21:23:47.958Z,66.70
2018-04-20T21:26:16.300Z,67.40
2018-04-20T21:28:44.617Z,68.00
2018-04-20T21:31:12.952Z,68.30
2018-04-20T21:33:41.264Z,68.60
2018-04-20T21:36:09.592Z,68.70
2018-04-20T21:38:37.900Z,69.00
2018-04-20T21:41:06.232Z,69.30
2018-04-20T21:43:34.537Z,69.50
2018-04-20T21:46:02.877Z,69.80
2018-04-20T21:48:31.192Z,70.20
2018-04-20T21:50:59.528Z,70.30
2018-04-20T21:53:28.920Z,70.40
2018-04-20T21:55:57.648Z,70.40
2018-04-20T21:58:27.065Z,70.30
2018-04-20T22:00:57.912Z,70.20
2018-04-20T22:03:26.217Z,70.20
2018-04-20T22:05:54.553Z,70.40
2018-04-20T22:08:22.865Z,70.60
2018-04-20T22:10:51.193Z,70.90
2018-04-20T22:13:19.504Z,70.90
2018-04-20T22:15:47.837Z,71.00
2018-04-20T22:18:16.149Z,71.40
2018-04-20T22:20:44.475Z,71.70
2018-04-20T22:23:12.794Z,71.80
2018-04-20T22:25:41.132Z,72.20
2018-04-20T22:28:09.439Z,71.70
2018-04-20T22:30:37.764Z,72.60
2018-04-20T22:33:06.073Z,72.70
2018-04-20T22:35:34.404Z,72.80
2018-04-20T22:38:02.713Z,72.90
2018-04-20T22:40:31.041Z,73.10
2018-04-20T22:42:59.344Z,73.30
2018-04-20T22:45:28.885Z,73.30
2018-04-20T22:47:57.199Z,74.00
2018-04-20T22:50:27.357Z,73.70
2018-04-20T22:52:57.941Z,73.80
2018-04-20T22:55:26.277Z,73.80
2018-04-20T22:57:54.581Z,73.90
2018-04-20T23:00:22.918Z,74.20
2018-04-20T23:02:51.224Z,74.20
2018-04-20T23:05:19.559Z,74.20
2018-04-20T23:07:47.869Z,74.40
2018-04-20T23:10:16.202Z,74.60
2018-04-20T23:12:44.509Z,74.70
2018-04-20T23:15:12.841Z,74.80
2018-04-20T23:17:41.148Z,74.90
2018-04-20T23:20:09.454Z,75.20
2018-04-20T23:22:37.777Z,75.40
2018-04-20T23:25:06.093Z,75.60
2018-04-20T23:27:34.428Z,75.50
2018-04-20T23:30:02.736Z,75.60
2018-04-20T23:32:31.065Z,76.10
2018-04-20T23:34:59.369Z,76.40
2018-04-20T23:37:28.472Z,76.50
2018-04-20T23:39:58.149Z,77.10
2018-04-20T23:42:27.657Z,76.60
2018-04-20T23:44:56.706Z,76.70
2018-04-20T23:47:25.741Z,77.00
2018-04-20T23:49:55.132Z,77.40
2018-04-20T23:52:24.167Z,77.60
2018-04-20T23:54:52.472Z,78.10
2018-04-20T23:57:20.805Z,78.40
2018-04-20T23:59:49.117Z,78.40
